Time;durP1;ratioP1;P1;durP2;ratioP2;P2;SDS_P1;SDS_P2;PMS_P1;PMS_P2;Temp;Humidity;BMP_temperature;BMP_pressure;BME280_temperature;BME280_humidity;BME280_pressure;Samples;Min_cycle;Max_cycle;Signal;HPM_P1;HPM_P2
2022/06/12 00:01:05;;;;;;;;;;;;;;;;;;5102919;28;19965;-77
2022/06/12 00:03:33;;;;;;;;;;;;;;;;;;5100615;28;19988;-77
2022/06/12 00:05:59;;;;;;;;;;;;;;;;;;5100182;28;19920;-77
2022/06/12 00:08:26;;;;;;;;;;;;;;;;;;5118578;28;20434;-77
2022/06/12 00:10:53;;;;;;;;;;;;;;;;;;5083074;28;19920;-77
2022/06/12 00:13:22;;;;;;;;;;;;;;;;;;5079763;28;19961;-77
2022/06/12 00:15:48;;;;;;;;;;;;;;;;;;5079502;28;19947;-76
2022/06/12 00:18:14;;;;;;;;;;;;;;;;;;5080012;28;19922;-76
2022/06/12 00:20:40;;;;;;;;;;;;;;;;;;5078428;28;19972;-76
2022/06/12 00:23:10;;;;;;;;;;;;;;;;;;5078296;28;19920;-76
2022/06/12 00:25:36;;;;;;;;;;;;;;;;;;5078217;28;19934;-76
2022/06/12 00:28:05;;;;;;;;;;;;;;;;;;5079015;28;19916;-77
2022/06/12 00:30:31;;;;;;;;;;;;;;;;;;5078880;28;20388;-76
2022/06/12 00:32:57;;;;;;;;;;;;;;;;;;5096929;28;19970;-77
2022/06/12 00:35:25;;;;;;;;;;;;;;;;;;5078567;28;19922;-76
2022/06/12 00:37:53;;;;;;;;;;;;;;;;;;5085039;28;19916;-77
2022/06/12 00:40:20;;;;;;;;;;;;;;;;;;5078259;28;19916;-76
2022/06/12 00:42:54;;;;;;;;;;;;;;;;;;5096206;28;20411;-76
2022/06/12 00:45:38;;;;;;;;;;;;;;;;;;5061575;28;19926;-77
2022/06/12 00:48:07;;;;;;;;;;;;;;;;;;5061075;28;19962;-76
2022/06/12 00:50:32;;;;;;;;;;;;;;;;;;5077513;28;20011;-76
2022/06/12 00:52:58;;;;;;;;;;;;;;;;;;5094819;28;20409;-76
2022/06/12 00:55:33;;;;;;;;;;;;;;;;;;5077989;28;19923;-77
2022/06/12 00:58:05;;;;;;;;;;;;;;;;;;5061178;28;19916;-77
2022/06/12 01:00:32;;;;;;;;;;;;;;;;;;5077530;28;19970;-76
2022/06/12 01:03:00;;;;;;;;;;;;;;;;;;5077689;28;19916;-77
2022/06/12 01:08:11;;;;;;;;;;;;;;;;;;5090236;28;20308;-76
2022/06/12 01:10:39;;;;;;;;;;;;;;;;;;5116061;28;20007;-77
2022/06/12 01:13:11;;;;;;;;;;;;;;;;;;5080467;28;20276;-76
2022/06/12 01:15:39;;;;;;;;;;;;;;;;;;5097890;28;19915;-77
2022/06/12 01:18:09;;;;;;;;;;;;;;;;;;5080963;28;20403;-77
2022/06/12 01:20:50;;;;;;;;;;;;;;;;;;5081179;28;19916;-77
2022/06/12 01:23:36;;;;;;;;;;;;;;;;;;5080652;28;19916;-76
2022/06/12 01:26:06;;;;;;;;;;;;;;;;;;5097799;28;19934;-77
2022/06/12 01:28:51;;;;;;;;;;;;;;;;;;5080930;28;19943;-76
2022/06/12 01:31:25;;;;;;;;;;;;;;;;;;5114553;28;19915;-77
2022/06/12 01:33:57;;;;;;;;;;;;;;;;;;5096667;28;19916;-77
2022/06/12 01:36:35;;;;;;;;;;;;;;;;;;5080500;28;19915;-76
2022/06/12 01:39:06;;;;;;;;;;;;;;;;;;5080500;28;19965;-76
2022/06/12 01:41:41;;;;;;;;;;;;;;;;;;5080286;28;19916;-76
2022/06/12 01:44:14;;;;;;;;;;;;;;;;;;5065296;28;19995;-76
2022/06/12 01:46:44;;;;;;;;;;;;;;;;;;5077080;28;19916;-76
2022/06/12 01:49:11;;;;;;;;;;;;;;;;;;5076607;28;20014;-77
2022/06/12 01:51:48;;;;;;;;;;;;;;;;;;5094921;28;19964;-76
2022/06/12 01:54:15;;;;;;;;;;;;;;;;;;5076676;28;19959;-76
2022/06/12 01:56:42;;;;;;;;;;;;;;;;;;5059936;28;19916;-76
2022/06/12 01:59:11;;;;;;;;;;;;;;;;;;5060140;28;20014;-76
2022/06/12 02:01:58;;;;;;;;;;;;;;;;;;5053306;28;19964;-76
2022/06/12 02:04:40;;;;;;;;;;;;;;;;;;5069805;28;19968;-76
2022/06/12 02:07:05;;;;;;;;;;;;;;;;;;5053127;28;20023;-76
2022/06/12 02:09:40;;;;;;;;;;;;;;;;;;5054359;28;19960;-76
2022/06/12 02:15:02;;;;;;;;;;;;;;;;;;5069710;28;19917;-76
2022/06/12 02:17:36;;;;;;;;;;;;;;;;;;5052821;28;19916;-76
2022/06/12 02:20:04;;;;;;;;;;;;;;;;;;5069561;28;20393;-76
2022/06/12 02:22:31;;;;;;;;;;;;;;;;;;5052827;28;19970;-76
2022/06/12 02:24:59;;;;;;;;;;;;;;;;;;5036192;28;19979;-76
2022/06/12 02:27:35;;;;;;;;;;;;;;;;;;5053040;28;19923;-76
2022/06/12 02:30:05;;;;;;;;;;;;;;;;;;5069128;28;19920;-76
2022/06/12 02:32:34;;;;;;;;;;;;;;;;;;5052575;28;19963;-76
2022/06/12 02:35:11;;;;;;;;;;;;;;;;;;5052637;28;20003;-76
2022/06/12 02:37:38;;;;;;;;;;;;;;;;;;5052745;28;19917;-76
2022/06/12 02:40:07;;;;;;;;;;;;;;;;;;5052345;28;19917;-76
2022/06/12 02:42:37;;;;;;;;;;;;;;;;;;5054009;28;19936;-76
2022/06/12 02:45:11;;;;;;;;;;;;;;;;;;5072649;28;20042;-76
2022/06/12 02:47:37;;;;;;;;;;;;;;;;;;5073635;28;19971;-76
2022/06/12 02:50:05;;;;;;;;;;;;;;;;;;5089213;28;19966;-76
2022/06/12 02:52:31;;;;;;;;;;;;;;;;;;5072385;28;20079;-76
2022/06/12 02:55:16;;;;;;;;;;;;;;;;;;5055931;28;19916;-76
2022/06/12 02:57:55;;;;;;;;;;;;;;;;;;5072396;28;20019;-76
2022/06/12 03:00:25;;;;;;;;;;;;;;;;;;5055435;28;19924;-76
2022/06/12 03:02:54;;;;;;;;;;;;;;;;;;5055797;28;19922;-76
2022/06/12 03:05:28;;;;;;;;;;;;;;;;;;5055560;28;19923;-76
2022/06/12 03:08:02;;;;;;;;;;;;;;;;;;5055461;28;19924;-76
2022/06/12 03:10:31;;;;;;;;;;;;;;;;;;5072480;28;19956;-76
2022/06/12 03:12:59;;;;;;;;;;;;;;;;;;5072260;28;19913;-76
2022/06/12 03:15:43;;;;;;;;;;;;;;;;;;5072159;28;20011;-76
2022/06/12 03:18:13;;;;;;;;;;;;;;;;;;5055407;28;19916;-76
2022/06/12 03:21:05;;;;;;;;;;;;;;;;;;5072131;28;20323;-76
2022/06/12 03:23:34;;;;;;;;;;;;;;;;;;5056242;28;19923;-76
2022/06/12 03:26:01;;;;;;;;;;;;;;;;;;5055100;28;19946;-76
2022/06/12 03:28:46;;;;;;;;;;;;;;;;;;5072103;28;19932;-76
2022/06/12 03:31:22;;;;;;;;;;;;;;;;;;5055398;28;19952;-76
2022/06/12 03:33:50;;;;;;;;;;;;;;;;;;5073086;28;19928;-76
2022/06/12 03:36:21;;;;;;;;;;;;;;;;;;5070008;28;20335;-76
2022/06/12 03:38:47;;;;;;;;;;;;;;;;;;5081170;28;20362;-76
2022/06/12 03:41:22;;;;;;;;;;;;;;;;;;5090063;28;19912;-76
2022/06/12 03:44:06;;;;;;;;;;;;;;;;;;5091849;28;19955;-76
2022/06/12 03:46:44;;;;;;;;;;;;;;;;;;5090606;28;19956;-76
2022/06/12 03:49:11;;;;;;;;;;;;;;;;;;5074025;28;20472;-76
2022/06/12 03:51:49;;;;;;;;;;;;;;;;;;5073756;28;20010;-76
2022/06/12 03:54:21;;;;;;;;;;;;;;;;;;5075453;28;19916;-76
2022/06/12 04:00:09;;;;;;;;;;;;;;;;;;5093613;28;19924;-76
2022/06/12 04:02:41;;;;;;;;;;;;;;;;;;5042925;28;19923;-76
2022/06/12 04:05:09;;;;;;;;;;;;;;;;;;5076938;28;19927;-76
2022/06/12 04:07:38;;;;;;;;;;;;;;;;;;5093979;28;19959;-76
2022/06/12 04:10:03;;;;;;;;;;;;;;;;;;5075149;28;19924;-76
2022/06/12 04:12:30;;;;;;;;;;;;;;;;;;5058389;28;19917;-76
2022/06/12 04:15:05;;;;;;;;;;;;;;;;;;5058848;28;20461;-76
2022/06/12 04:17:30;;;;;;;;;;;;;;;;;;5076492;28;19974;-76
2022/06/12 04:19:59;;;;;;;;;;;;;;;;;;5075379;28;20369;-76
2022/06/12 04:22:30;;;;;;;;;;;;;;;;;;5074944;28;19970;-75
2022/06/12 04:24:59;;;;;;;;;;;;;;;;;;5058303;28;20034;-76
2022/06/12 04:27:34;;;;;;;;;;;;;;;;;;5058648;28;20351;-77
2022/06/12 04:30:00;;;;;;;;;;;;;;;;;;5075089;28;19942;-77
2022/06/12 04:32:28;;;;;;;;;;;;;;;;;;5075045;28;19917;-77
2022/06/12 04:34:54;;;;;;;;;;;;;;;;;;5075770;28;19917;-76
2022/06/12 04:37:25;;;;;;;;;;;;;;;;;;5058343;28;20385;-77
2022/06/12 04:39:51;;;;;;;;;;;;;;;;;;5071845;28;19916;-76
2022/06/12 04:42:18;;;;;;;;;;;;;;;;;;5075794;28;19916;-76
2022/06/12 04:44:43;;;;;;;;;;;;;;;;;;5090913;28;20418;-76
2022/06/12 04:47:13;;;;;;;;;;;;;;;;;;5074757;28;19917;-76
2022/06/12 04:49:38;;;;;;;;;;;;;;;;;;5074368;28;19923;-78
2022/06/12 04:52:05;;;;;;;;;;;;;;;;;;5075409;28;19920;-77
2022/06/12 04:54:31;;;;;;;;;;;;;;;;;;5074629;28;19917;-77
2022/06/12 04:56:57;;;;;;;;;;;;;;;;;;5091171;28;19925;-78
2022/06/12 04:59:22;;;;;;;;;;;;;;;;;;5092846;28;19924;-77
2022/06/12 05:01:48;;;;;;;;;;;;;;;;;;5077612;28;19916;-77
2022/06/12 05:04:14;;;;;;;;;;;;;;;;;;5061045;28;19939;-77
2022/06/12 05:06:45;;;;;;;;;;;;;;;;;;5060921;28;19920;-77
2022/06/12 05:09:12;;;;;;;;;;;;;;;;;;5073013;28;19920;-78
2022/06/12 05:11:39;;;;;;;;;;;;;;;;;;5097711;28;19941;-77
2022/06/12 05:14:06;;;;;;;;;;;;;;;;;;5081132;28;20354;-77
2022/06/12 05:16:37;;;;;;;;;;;;;;;;;;5117810;28;19916;-78
2022/06/12 05:19:03;;;;;;;;;;;;;;;;;;5099449;28;19923;-78
2022/06/12 05:21:30;;;;;;;;;;;;;;;;;;5082831;28;19969;-77
2022/06/12 05:23:56;;;;;;;;;;;;;;;;;;5099514;28;19951;-77
2022/06/12 05:26:21;;;;;;;;;;;;;;;;;;5079565;28;19916;-77
2022/06/12 05:28:47;;;;;;;;;;;;;;;;;;5078821;28;20385;-77
2022/06/12 05:31:13;;;;;;;;;;;;;;;;;;5078911;28;19916;-78
2022/06/12 05:33:39;;;;;;;;;;;;;;;;;;5062250;28;19977;-78
2022/06/12 05:36:05;;;;;;;;;;;;;;;;;;5078896;28;19920;-77
2022/06/12 05:38:31;;;;;;;;;;;;;;;;;;5095475;28;19958;-77
2022/06/12 05:40:57;;;;;;;;;;;;;;;;;;5096783;28;19916;-77
2022/06/12 05:43:23;;;;;;;;;;;;;;;;;;5079498;28;20378;-79
2022/06/12 05:45:48;;;;;;;;;;;;;;;;;;5083865;28;19963;-80
2022/06/12 05:48:16;;;;;;;;;;;;;;;;;;5103060;28;19963;-81
2022/06/12 05:50:47;;;;;;;;;;;;;;;;;;5101323;28;20384;-81
2022/06/12 05:53:13;;;;;;;;;;;;;;;;;;5080239;28;19983;-77
2022/06/12 05:55:38;;;;;;;;;;;;;;;;;;5122172;28;19963;-79
2022/06/12 05:58:03;;;;;;;;;;;;;;;;;;5105510;28;20408;-81
2022/06/12 06:00:30;;;;;;;;;;;;;;;;;;5087506;28;19967;-80
2022/06/12 06:02:57;;;;;;;;;;;;;;;;;;5089200;28;19979;-82
2022/06/12 06:05:23;;;;;;;;;;;;;;;;;;5087977;28;19916;-82
2022/06/12 06:07:49;;;;;;;;;;;;;;;;;;5090032;28;19919;-81
2022/06/12 06:10:19;;;;;;;;;;;;;;;;;;5104526;28;19926;-81
2022/06/12 06:12:45;;;;;;;;;;;;;;;;;;5088630;28;19919;-81
2022/06/12 06:15:11;;;;;;;;;;;;;;;;;;5086973;28;19944;-83
2022/06/12 06:17:37;;;;;;;;;;;;;;;;;;5084921;28;19984;-82
2022/06/12 06:20:04;;;;;;;;;;;;;;;;;;5086246;28;20392;-83
2022/06/12 06:22:29;;;;;;;;;;;;;;;;;;5080868;28;19951;-80
2022/06/12 06:24:55;;;;;;;;;;;;;;;;;;5070113;28;20125;-80
2022/06/12 06:27:20;;;;;;;;;;;;;;;;;;5068936;28;20396;-80
2022/06/12 06:29:45;;;;;;;;;;;;;;;;;;5086083;28;19912;-80
2022/06/12 06:32:12;;;;;;;;;;;;;;;;;;5084807;28;19923;-81
2022/06/12 06:34:41;;;;;;;;;;;;;;;;;;5067057;28;19953;-81
2022/06/12 06:37:08;;;;;;;;;;;;;;;;;;5066900;28;19947;-80
2022/06/12 06:39:34;;;;;;;;;;;;;;;;;;5086538;28;19915;-82
2022/06/12 06:42:00;;;;;;;;;;;;;;;;;;5086957;28;20010;-80
2022/06/12 06:47:13;;;;;;;;;;;;;;;;;;5100122;28;19920;-79
2022/06/12 06:49:40;;;;;;;;;;;;;;;;;;5083442;28;19915;-80
2022/06/12 06:52:06;;;;;;;;;;;;;;;;;;5085369;28;19916;-81
2022/06/12 06:54:32;;;;;;;;;;;;;;;;;;5103932;28;19954;-83
2022/06/12 06:56:57;;;;;;;;;;;;;;;;;;5102170;28;19922;-84
2022/06/12 06:59:24;;;;;;;;;;;;;;;;;;5101479;28;19915;-81
2022/06/12 07:01:52;;;;;;;;;;;;;;;;;;5083963;28;19916;-82
2022/06/12 07:04:18;;;;;;;;;;;;;;;;;;5084299;28;20285;-83
2022/06/12 07:06:43;;;;;;;;;;;;;;;;;;5100962;28;19920;-81
2022/06/12 07:09:09;;;;;;;;;;;;;;;;;;5067983;28;19923;-81
2022/06/12 07:11:34;;;;;;;;;;;;;;;;;;5080794;28;19920;-81
2022/06/12 07:14:00;;;;;;;;;;;;;;;;;;5098042;28;19916;-80
2022/06/12 07:16:27;;;;;;;;;;;;;;;;;;5088287;28;19915;-79
2022/06/12 07:18:53;;;;;;;;;;;;;;;;;;5084654;28;20308;-79
2022/06/12 07:21:21;;;;;;;;;;;;;;;;;;5102244;28;19916;-80
2022/06/12 07:23:48;;;;;;;;;;;;;;;;;;5102366;28;19916;-79
2022/06/12 07:26:22;;;;;;;;;;;;;;;;;;5084695;28;19926;-80
2022/06/12 07:28:47;;;;;;;;;;;;;;;;;;5086115;28;19920;-78
2022/06/12 07:31:13;;;;;;;;;;;;;;;;;;5105142;28;20000;-79
2022/06/12 07:33:38;;;;;;;;;;;;;;;;;;5087955;28;19968;-80
2022/06/12 07:36:09;;;;;;;;;;;;;;;;;;5087755;28;19916;-80
2022/06/12 07:38:38;;;;;;;;;;;;;;;;;;5103861;28;19943;-80
2022/06/12 07:41:08;;;;;;;;;;;;;;;;;;5086341;28;19962;-80
2022/06/12 07:43:38;;;;;;;;;;;;;;;;;;5104872;28;19920;-79
2022/06/12 07:46:04;;;;;;;;;;;;;;;;;;5105898;28;19919;-80
2022/06/12 07:48:33;;;;;;;;;;;;;;;;;;5106302;28;19965;-80
2022/06/12 07:50:59;;;;;;;;;;;;;;;;;;5089189;28;19916;-79
2022/06/12 07:53:25;;;;;;;;;;;;;;;;;;5106749;28;19920;-83
2022/06/12 07:55:51;;;;;;;;;;;;;;;;;;5109643;28;20014;-82
2022/06/12 07:58:18;;;;;;;;;;;;;;;;;;5091810;28;19954;-84
2022/06/12 08:00:44;;;;;;;;;;;;;;;;;;5090049;28;19923;-81
2022/06/12 08:03:12;;;;;;;;;;;;;;;;;;5094830;28;19919;-84
2022/06/12 08:05:38;;;;;;;;;;;;;;;;;;5087214;28;19942;-84
2022/06/12 08:08:03;;;;;;;;;;;;;;;;;;5085069;28;19915;-80
2022/06/12 08:10:29;;;;;;;;;;;;;;;;;;5105062;28;19916;-82
2022/06/12 08:12:56;;;;;;;;;;;;;;;;;;5104029;28;20304;-83
2022/06/12 08:15:27;;;;;;;;;;;;;;;;;;5087877;28;19920;-83
2022/06/12 08:17:53;;;;;;;;;;;;;;;;;;5103726;28;19927;-84
2022/06/12 08:20:24;;;;;;;;;;;;;;;;;;5085665;28;19916;-83
2022/06/12 08:22:51;;;;;;;;;;;;;;;;;;5075416;28;19923;-82
2022/06/12 08:25:17;;;;;;;;;;;;;;;;;;5085793;28;19930;-81
2022/06/12 08:27:42;;;;;;;;;;;;;;;;;;5085668;28;20006;-82
2022/06/12 08:30:08;;;;;;;;;;;;;;;;;;5104043;28;19939;-82
2022/06/12 08:32:34;;;;;;;;;;;;;;;;;;5085276;28;19938;-83
2022/06/12 08:35:03;;;;;;;;;;;;;;;;;;5086692;28;19916;-81
2022/06/12 08:37:32;;;;;;;;;;;;;;;;;;5084689;28;19923;-81
2022/06/12 08:39:59;;;;;;;;;;;;;;;;;;5085825;28;19916;-82
2022/06/12 08:42:27;;;;;;;;;;;;;;;;;;5086127;28;20132;-80
2022/06/12 08:44:56;;;;;;;;;;;;;;;;;;5083628;28;19920;-84
2022/06/12 08:47:24;;;;;;;;;;;;;;;;;;5070403;28;20010;-84
2022/06/12 08:50:01;;;;;;;;;;;;;;;;;;5067706;28;19916;-83
2022/06/12 08:52:37;;;;;;;;;;;;;;;;;;5089707;28;19920;-83
2022/06/12 08:55:02;;;;;;;;;;;;;;;;;;5068794;28;19916;-83
2022/06/12 08:57:43;;;;;;;;;;;;;;;;;;5082759;28;19947;-83
2022/06/12 09:00:14;;;;;;;;;;;;;;;;;;5083338;28;20027;-82
2022/06/12 09:02:41;;;;;;;;;;;;;;;;;;5100938;28;19916;-83
2022/06/12 09:05:08;;;;;;;;;;;;;;;;;;5085675;28;19927;-85
2022/06/12 09:07:38;;;;;;;;;;;;;;;;;;5083115;28;19916;-84
2022/06/12 09:10:22;;;;;;;;;;;;;;;;;;5100194;28;20274;-83
2022/06/12 09:12:52;;;;;;;;;;;;;;;;;;5063747;28;19916;-83
2022/06/12 09:15:44;;;;;;;;;;;;;;;;;;5084323;28;19916;-80
2022/06/12 09:18:12;;;;;;;;;;;;;;;;;;5084082;28;19938;-81
2022/06/12 09:21:00;;;;;;;;;;;;;;;;;;5066416;28;19920;-80
2022/06/12 09:23:39;;;;;;;;;;;;;;;;;;5103080;28;19919;-80
2022/06/12 09:26:12;;;;;;;;;;;;;;;;;;5080904;28;20351;-79
2022/06/12 09:28:45;;;;;;;;;;;;;;;;;;5083353;28;20372;-80
2022/06/12 09:31:29;;;;;;;;;;;;;;;;;;5104238;28;19938;-81
2022/06/12 09:33:58;;;;;;;;;;;;;;;;;;5065776;28;19916;-79
2022/06/12 09:36:29;;;;;;;;;;;;;;;;;;5081917;28;19950;-78
2022/06/12 09:38:55;;;;;;;;;;;;;;;;;;5063968;28;19920;-79
2022/06/12 09:41:24;;;;;;;;;;;;;;;;;;5100742;28;20387;-77
2022/06/12 09:43:56;;;;;;;;;;;;;;;;;;5080619;28;19947;-79
2022/06/12 09:46:47;;;;;;;;;;;;;;;;;;5081582;28;20428;-79
2022/06/12 09:49:18;;;;;;;;;;;;;;;;;;5063504;28;20278;-81
2022/06/12 09:51:57;;;;;;;;;;;;;;;;;;5063471;28;19920;-79
2022/06/12 09:54:41;;;;;;;;;;;;;;;;;;5076771;28;19916;-78
2022/06/12 09:57:25;;;;;;;;;;;;;;;;;;5077654;28;19937;-79
2022/06/12 10:00:16;;;;;;;;;;;;;;;;;;5073314;28;19920;-81
2022/06/12 10:03:03;;;;;;;;;;;;;;;;;;5091411;28;19900;-80
2022/06/12 10:05:41;;;;;;;;;;;;;;;;;;5089014;28;19942;-80
2022/06/12 10:08:18;;;;;;;;;;;;;;;;;;5073630;28;19999;-81
2022/06/12 10:10:47;;;;;;;;;;;;;;;;;;5089273;28;19916;-80
2022/06/12 10:13:14;;;;;;;;;;;;;;;;;;5110257;28;19942;-80
2022/06/12 10:15:48;;;;;;;;;;;;;;;;;;5092845;28;19981;-79
2022/06/12 10:18:22;;;;;;;;;;;;;;;;;;5081286;28;19959;-80
2022/06/12 10:20:51;;;;;;;;;;;;;;;;;;5080599;28;19940;-80
2022/06/12 10:23:17;;;;;;;;;;;;;;;;;;5081061;28;19923;-80
2022/06/12 10:25:46;;;;;;;;;;;;;;;;;;5096905;28;19974;-79
2022/06/12 10:28:14;;;;;;;;;;;;;;;;;;5080781;28;19916;-80
2022/06/12 10:30:41;;;;;;;;;;;;;;;;;;5099131;28;19923;-80
2022/06/12 10:33:28;;;;;;;;;;;;;;;;;;5097892;28;20438;-80
2022/06/12 10:35:55;;;;;;;;;;;;;;;;;;5098768;28;19916;-80
2022/06/12 10:38:21;;;;;;;;;;;;;;;;;;5103642;28;19938;-80
2022/06/12 10:40:54;;;;;;;;;;;;;;;;;;5092559;28;19923;-80
2022/06/12 10:43:26;;;;;;;;;;;;;;;;;;5092235;28;19931;-80
2022/06/12 10:46:19;;;;;;;;;;;;;;;;;;5087202;28;19924;-80
2022/06/12 10:48:59;;;;;;;;;;;;;;;;;;5042251;28;20401;-79
2022/06/12 10:51:38;;;;;;;;;;;;;;;;;;5097279;28;19927;-79
2022/06/12 10:54:19;;;;;;;;;;;;;;;;;;5079800;28;19916;-79
2022/06/12 10:56:54;;;;;;;;;;;;;;;;;;5079672;28;20331;-79
2022/06/12 10:59:26;;;;;;;;;;;;;;;;;;5087554;28;19948;-80
2022/06/12 11:01:54;;;;;;;;;;;;;;;;;;5099203;28;19923;-79
2022/06/12 11:04:39;;;;;;;;;;;;;;;;;;5093184;28;19916;-79
2022/06/12 11:07:18;;;;;;;;;;;;;;;;;;5089833;28;20351;-79
2022/06/12 11:09:43;;;;;;;;;;;;;;;;;;5127166;28;19976;-79
2022/06/12 11:12:24;;;;;;;;;;;;;;;;;;5089176;28;19916;-80
2022/06/12 11:15:02;;;;;;;;;;;;;;;;;;5107704;28;19916;-79
2022/06/12 11:17:37;;;;;;;;;;;;;;;;;;5090378;28;19940;-79
2022/06/12 11:20:22;;;;;;;;;;;;;;;;;;5090752;28;19922;-80
2022/06/12 11:23:01;;;;;;;;;;;;;;;;;;5090392;28;19916;-80
2022/06/12 11:25:36;;;;;;;;;;;;;;;;;;5090117;28;19920;-79
2022/06/12 11:28:31;;;;;;;;;;;;;;;;;;5108161;28;19916;-79
2022/06/12 11:31:06;;;;;;;;;;;;;;;;;;5020688;28;19924;-79
2022/06/12 11:33:43;;;;;;;;;;;;;;;;;;5079829;28;20006;-79
2022/06/12 11:36:11;;;;;;;;;;;;;;;;;;5080067;28;19924;-79
2022/06/12 11:38:52;;;;;;;;;;;;;;;;;;5090557;28;20439;-79
2022/06/12 11:41:29;;;;;;;;;;;;;;;;;;5083503;28;19941;-79
2022/06/12 11:44:07;;;;;;;;;;;;;;;;;;5117956;28;19940;-79
2022/06/12 11:46:32;;;;;;;;;;;;;;;;;;5099648;28;19966;-79
2022/06/12 11:49:01;;;;;;;;;;;;;;;;;;5099465;28;19923;-79
2022/06/12 11:51:35;;;;;;;;;;;;;;;;;;5099290;28;19920;-79
2022/06/12 11:54:09;;;;;;;;;;;;;;;;;;5082596;28;19915;-79
2022/06/12 11:56:38;;;;;;;;;;;;;;;;;;5082317;28;19966;-79
2022/06/12 11:59:14;;;;;;;;;;;;;;;;;;5099042;28;19923;-79
2022/06/12 12:01:48;;;;;;;;;;;;;;;;;;5076094;28;19943;-79
2022/06/12 12:04:19;;;;;;;;;;;;;;;;;;5076163;28;19917;-79
2022/06/12 12:07:05;;;;;;;;;;;;;;;;;;5075930;28;19920;-79
2022/06/12 12:09:31;;;;;;;;;;;;;;;;;;5056043;28;19967;-79
2022/06/12 12:12:02;;;;;;;;;;;;;;;;;;5053560;28;19917;-78
2022/06/12 12:14:28;;;;;;;;;;;;;;;;;;5052475;28;19921;-78
2022/06/12 12:17:00;;;;;;;;;;;;;;;;;;5055367;28;19920;-77
2022/06/12 12:19:30;;;;;;;;;;;;;;;;;;5055409;28;20008;-76
2022/06/12 12:22:00;;;;;;;;;;;;;;;;;;5055043;28;19921;-77
2022/06/12 12:24:35;;;;;;;;;;;;;;;;;;5055053;28;19924;-76
2022/06/12 12:27:03;;;;;;;;;;;;;;;;;;5055225;28;20313;-77
2022/06/12 12:29:31;;;;;;;;;;;;;;;;;;5055011;28;20362;-76
2022/06/12 12:31:57;;;;;;;;;;;;;;;;;;5058004;28;19921;-79
2022/06/12 12:34:23;;;;;;;;;;;;;;;;;;5077063;28;19916;-75
2022/06/12 12:42:27;;;;;;;;;;;;;;;;;;5064142;28;20446;-81
2022/06/12 12:44:53;;;;;;;;;;;;;;;;;;5041434;28;20367;-82
2022/06/12 12:47:19;;;;;;;;;;;;;;;;;;5041392;28;19966;-81
2022/06/12 12:49:46;;;;;;;;;;;;;;;;;;5040666;28;19997;-77
2022/06/12 12:52:16;;;;;;;;;;;;;;;;;;5058295;28;19917;-77
2022/06/12 12:54:52;;;;;;;;;;;;;;;;;;5067470;28;19923;-78
2022/06/12 12:57:19;;;;;;;;;;;;;;;;;;5040001;28;19917;-79
2022/06/12 12:59:55;;;;;;;;;;;;;;;;;;5045425;28;19963;-81
2022/06/12 13:02:48;;;;;;;;;;;;;;;;;;5058800;28;19920;-80
2022/06/12 13:05:31;;;;;;;;;;;;;;;;;;5060705;28;19943;-77
2022/06/12 13:07:59;;;;;;;;;;;;;;;;;;5061515;28;19921;-82
2022/06/12 13:10:33;;;;;;;;;;;;;;;;;;5076015;28;19923;-83
2022/06/12 13:13:17;;;;;;;;;;;;;;;;;;5067683;28;19955;-82
2022/06/12 13:15:49;;;;;;;;;;;;;;;;;;5079242;28;20024;-77
2022/06/12 13:18:24;;;;;;;;;;;;;;;;;;5082733;28;20337;-78
2022/06/12 13:20:57;;;;;;;;;;;;;;;;;;5088809;28;19978;-79
2022/06/12 13:23:26;;;;;;;;;;;;;;;;;;5086553;28;19917;-78
2022/06/12 13:25:53;;;;;;;;;;;;;;;;;;5099023;28;19920;-79
2022/06/12 13:28:25;;;;;;;;;;;;;;;;;;5071413;28;19917;-78
2022/06/12 13:30:51;;;;;;;;;;;;;;;;;;5085358;28;20339;-80
2022/06/12 13:33:20;;;;;;;;;;;;;;;;;;5066380;28;19955;-79
2022/06/12 13:35:47;;;;;;;;;;;;;;;;;;5077207;28;20405;-79
2022/06/12 13:38:19;;;;;;;;;;;;;;;;;;5059781;28;19923;-79
2022/06/12 13:40:50;;;;;;;;;;;;;;;;;;5077429;28;19920;-79
2022/06/12 13:43:28;;;;;;;;;;;;;;;;;;5085253;28;19916;-79
2022/06/12 13:45:54;;;;;;;;;;;;;;;;;;5079837;28;19945;-79
2022/06/12 13:48:24;;;;;;;;;;;;;;;;;;5086813;28;20373;-79
2022/06/12 13:50:52;;;;;;;;;;;;;;;;;;5093272;28;19923;-79
2022/06/12 13:53:18;;;;;;;;;;;;;;;;;;5088506;28;19916;-79
2022/06/12 13:55:46;;;;;;;;;;;;;;;;;;5101664;28;19916;-79
2022/06/12 13:58:20;;;;;;;;;;;;;;;;;;5085980;28;19971;-79
2022/06/12 14:00:48;;;;;;;;;;;;;;;;;;5096702;28;19928;-78
2022/06/12 14:03:24;;;;;;;;;;;;;;;;;;5080303;28;20362;-79
2022/06/12 14:05:57;;;;;;;;;;;;;;;;;;5079922;28;19920;-79
2022/06/12 14:08:24;;;;;;;;;;;;;;;;;;5104556;28;19916;-79
2022/06/12 14:10:50;;;;;;;;;;;;;;;;;;5097279;28;19916;-79
2022/06/12 14:13:29;;;;;;;;;;;;;;;;;;5083729;28;19931;-79
2022/06/12 14:16:06;;;;;;;;;;;;;;;;;;5096843;28;19970;-79
2022/06/12 14:18:32;;;;;;;;;;;;;;;;;;5096732;28;19986;-79
2022/06/12 14:21:16;;;;;;;;;;;;;;;;;;5097050;28;19912;-79
2022/06/12 14:23:44;;;;;;;;;;;;;;;;;;5098769;28;19923;-79
2022/06/12 14:26:21;;;;;;;;;;;;;;;;;;5079965;28;19941;-79
2022/06/12 14:28:47;;;;;;;;;;;;;;;;;;5080674;28;19986;-79
2022/06/12 14:31:15;;;;;;;;;;;;;;;;;;5080148;28;19922;-79
2022/06/12 14:33:50;;;;;;;;;;;;;;;;;;5097196;28;19920;-78
2022/06/12 14:36:36;;;;;;;;;;;;;;;;;;5079593;28;19942;-79
2022/06/12 14:39:09;;;;;;;;;;;;;;;;;;5095347;28;19922;-79
2022/06/12 14:41:34;;;;;;;;;;;;;;;;;;5079234;28;19916;-79
2022/06/12 14:44:00;;;;;;;;;;;;;;;;;;5096303;28;20289;-79
2022/06/12 14:46:27;;;;;;;;;;;;;;;;;;5096626;28;20393;-79
2022/06/12 14:48:52;;;;;;;;;;;;;;;;;;5097680;28;20011;-79
2022/06/12 14:51:19;;;;;;;;;;;;;;;;;;5083950;28;19967;-79
2022/06/12 14:53:45;;;;;;;;;;;;;;;;;;5089339;28;19920;-79
2022/06/12 14:56:15;;;;;;;;;;;;;;;;;;5059371;28;19916;-79
2022/06/12 14:58:41;;;;;;;;;;;;;;;;;;5080516;28;19917;-79
2022/06/12 15:01:09;;;;;;;;;;;;;;;;;;5078313;28;19927;-79
2022/06/12 15:03:35;;;;;;;;;;;;;;;;;;5072859;28;19941;-79
2022/06/12 15:06:00;;;;;;;;;;;;;;;;;;5081357;28;19965;-79
2022/06/12 15:08:26;;;;;;;;;;;;;;;;;;5083594;28;19912;-79
2022/06/12 15:10:52;;;;;;;;;;;;;;;;;;5081052;28;19916;-79
2022/06/12 15:13:20;;;;;;;;;;;;;;;;;;5099476;28;19917;-80
2022/06/12 15:15:46;;;;;;;;;;;;;;;;;;5097948;28;19946;-80
2022/06/12 15:18:12;;;;;;;;;;;;;;;;;;5080183;28;19917;-80
2022/06/12 15:20:40;;;;;;;;;;;;;;;;;;5088914;28;19946;-80
2022/06/12 15:23:08;;;;;;;;;;;;;;;;;;5090559;28;19952;-79
2022/06/12 15:31:09;;;;;;;;;;;;;;;;;;5107784;28;19916;-80
2022/06/12 15:33:37;;;;;;;;;;;;;;;;;;5090068;28;19916;-80
2022/06/12 15:36:07;;;;;;;;;;;;;;;;;;5105891;28;19919;-80
2022/06/12 15:38:33;;;;;;;;;;;;;;;;;;5088663;28;19916;-80
2022/06/12 15:41:00;;;;;;;;;;;;;;;;;;5082481;28;20350;-80
2022/06/12 15:43:25;;;;;;;;;;;;;;;;;;5096587;28;19920;-80
2022/06/12 15:45:51;;;;;;;;;;;;;;;;;;5074814;28;20393;-79
2022/06/12 15:48:18;;;;;;;;;;;;;;;;;;5079076;28;19916;-80
2022/06/12 15:50:46;;;;;;;;;;;;;;;;;;5077762;28;20362;-79
2022/06/12 15:53:12;;;;;;;;;;;;;;;;;;5081698;28;19958;-79
2022/06/12 15:55:37;;;;;;;;;;;;;;;;;;5081452;28;19916;-79
2022/06/12 15:58:03;;;;;;;;;;;;;;;;;;5101738;28;20419;-79
2022/06/12 16:00:28;;;;;;;;;;;;;;;;;;5083497;28;19939;-81
2022/06/12 16:02:54;;;;;;;;;;;;;;;;;;5103402;28;19916;-82
2022/06/12 16:05:21;;;;;;;;;;;;;;;;;;5082698;28;19927;-79
2022/06/12 16:07:47;;;;;;;;;;;;;;;;;;5083086;28;20010;-86
2022/06/12 16:10:14;;;;;;;;;;;;;;;;;;5076271;28;20239;-82
2022/06/12 16:12:41;;;;;;;;;;;;;;;;;;5079258;28;19959;-83
2022/06/12 16:15:11;;;;;;;;;;;;;;;;;;5080336;28;19917;-82
2022/06/12 16:17:37;;;;;;;;;;;;;;;;;;5081074;28;19916;-80
2022/06/12 16:20:04;;;;;;;;;;;;;;;;;;5081010;28;20334;-82
2022/06/12 16:22:29;;;;;;;;;;;;;;;;;;5080377;28;19938;-82
2022/06/12 16:24:55;;;;;;;;;;;;;;;;;;5071804;28;19974;-82
2022/06/12 16:27:21;;;;;;;;;;;;;;;;;;5063645;28;20010;-83
2022/06/12 16:29:48;;;;;;;;;;;;;;;;;;5098399;28;19917;-83
2022/06/12 16:32:13;;;;;;;;;;;;;;;;;;5063587;28;19923;-83
2022/06/12 16:34:38;;;;;;;;;;;;;;;;;;5082020;28;19916;-83
2022/06/12 16:37:04;;;;;;;;;;;;;;;;;;5063492;28;19916;-83
2022/06/12 16:39:33;;;;;;;;;;;;;;;;;;5094191;28;19923;-83
2022/06/12 16:41:58;;;;;;;;;;;;;;;;;;5107016;28;19982;-82
2022/06/12 16:44:24;;;;;;;;;;;;;;;;;;5099874;28;19916;-83
2022/06/12 16:46:53;;;;;;;;;;;;;;;;;;5081868;28;19927;-82
2022/06/12 16:49:21;;;;;;;;;;;;;;;;;;5083397;28;19916;-84
2022/06/12 16:52:07;;;;;;;;;;;;;;;;;;5084044;28;19916;-82
2022/06/12 16:54:32;;;;;;;;;;;;;;;;;;5099888;28;19916;-82
2022/06/12 16:56:58;;;;;;;;;;;;;;;;;;5082866;28;20341;-80
2022/06/12 16:59:24;;;;;;;;;;;;;;;;;;5099383;28;19923;-78
2022/06/12 17:01:49;;;;;;;;;;;;;;;;;;5101581;28;19957;-78
2022/06/12 17:04:15;;;;;;;;;;;;;;;;;;5087410;28;19976;-81
2022/06/12 17:06:40;;;;;;;;;;;;;;;;;;5104519;28;19919;-83
2022/06/12 17:09:09;;;;;;;;;;;;;;;;;;5087014;28;19916;-80
2022/06/12 17:11:35;;;;;;;;;;;;;;;;;;5102739;28;20270;-79
2022/06/12 17:14:01;;;;;;;;;;;;;;;;;;5086356;28;19922;-78
2022/06/12 17:16:28;;;;;;;;;;;;;;;;;;5101179;28;19919;-79
2022/06/12 17:21:37;;;;;;;;;;;;;;;;;;5100321;28;20279;-77
2022/06/12 17:24:04;;;;;;;;;;;;;;;;;;5095686;28;20011;-78
2022/06/12 17:26:29;;;;;;;;;;;;;;;;;;5062840;28;19969;-77
2022/06/12 17:28:55;;;;;;;;;;;;;;;;;;5096074;28;19924;-77
2022/06/12 17:31:21;;;;;;;;;;;;;;;;;;5066347;28;19916;-80